sensor_id;sensor_type;location;lat;lon;timestamp;pressure;altitude;pressure_sealevel;temperature;humidity
30618;BME280;17384;51.214;9.202;2022-12-18T00:01:33;100031.19;;;-10.08;86.01
30618;BME280;17384;51.214;9.202;2022-12-18T00:04:01;100037.00;;;-10.00;84.95
30618;BME280;17384;51.214;9.202;2022-12-18T00:06:28;100039.75;;;-10.03;84.60
30618;BME280;17384;51.214;9.202;2022-12-18T00:08:56;100048.41;;;-10.01;84.41
30618;BME280;17384;51.214;9.202;2022-12-18T00:11:24;100039.16;;;-10.11;84.57
30618;BME280;17384;51.214;9.202;2022-12-18T00:13:51;100036.22;;;-10.25;83.56
30618;BME280;17384;51.214;9.202;2022-12-18T00:16:19;100037.47;;;-10.35;84.15
30618;BME280;17384;51.214;9.202;2022-12-18T00:18:46;100042.03;;;-10.40;84.34
30618;BME280;17384;51.214;9.202;2022-12-18T00:21:13;100024.63;;;-10.43;84.22
30618;BME280;17384;51.214;9.202;2022-12-18T00:23:40;100035.50;;;-10.53;84.25
30618;BME280;17384;51.214;9.202;2022-12-18T00:26:10;100040.78;;;-10.55;84.15
30618;BME280;17384;51.214;9.202;2022-12-18T00:28:40;100043.34;;;-10.53;84.37
30618;BME280;17384;51.214;9.202;2022-12-18T00:31:08;100027.84;;;-10.60;84.60
30618;BME280;17384;51.214;9.202;2022-12-18T00:33:35;100041.22;;;-10.67;84.81
30618;BME280;17384;51.214;9.202;2022-12-18T00:36:02;100035.34;;;-10.74;85.13
30618;BME280;17384;51.214;9.202;2022-12-18T00:38:28;100048.59;;;-10.53;85.52
30618;BME280;17384;51.214;9.202;2022-12-18T00:40:53;100036.53;;;-10.34;83.76
30618;BME280;17384;51.214;9.202;2022-12-18T00:43:18;100037.34;;;-10.32;83.41
30618;BME280;17384;51.214;9.202;2022-12-18T00:45:44;100025.03;;;-10.30;83.62
30618;BME280;17384;51.214;9.202;2022-12-18T00:48:10;100031.66;;;-10.43;83.75
30618;BME280;17384;51.214;9.202;2022-12-18T00:50:36;100039.28;;;-10.37;83.64
30618;BME280;17384;51.214;9.202;2022-12-18T00:53:01;100041.00;;;-10.36;83.83
30618;BME280;17384;51.214;9.202;2022-12-18T00:55:26;100033.78;;;-10.54;84.19
30618;BME280;17384;51.214;9.202;2022-12-18T00:57:52;100040.44;;;-10.44;83.68
30618;BME280;17384;51.214;9.202;2022-12-18T01:00:18;100043.84;;;-10.42;83.67
30618;BME280;17384;51.214;9.202;2022-12-18T01:02:43;100048.19;;;-10.41;83.70
30618;BME280;17384;51.214;9.202;2022-12-18T01:05:10;100042.56;;;-10.55;84.28
30618;BME280;17384;51.214;9.202;2022-12-18T01:07:36;100044.97;;;-10.49;84.00
30618;BME280;17384;51.214;9.202;2022-12-18T01:10:02;100043.78;;;-10.66;83.99
30618;BME280;17384;51.214;9.202;2022-12-18T01:12:28;100052.81;;;-10.74;84.60
30618;BME280;17384;51.214;9.202;2022-12-18T01:14:53;100049.34;;;-10.75;85.08
30618;BME280;17384;51.214;9.202;2022-12-18T01:17:18;100062.44;;;-10.75;85.14
30618;BME280;17384;51.214;9.202;2022-12-18T01:19:44;100057.25;;;-10.76;85.22
30618;BME280;17384;51.214;9.202;2022-12-18T01:22:09;100053.63;;;-10.72;85.13
30618;BME280;17384;51.214;9.202;2022-12-18T01:24:35;100061.50;;;-10.47;82.51
30618;BME280;17384;51.214;9.202;2022-12-18T01:27:00;100055.50;;;-10.51;82.10
30618;BME280;17384;51.214;9.202;2022-12-18T01:29:26;100061.44;;;-10.71;83.10
30618;BME280;17384;51.214;9.202;2022-12-18T01:31:55;100057.72;;;-10.65;83.38
30618;BME280;17384;51.214;9.202;2022-12-18T01:34:21;100074.22;;;-10.62;83.60
30618;BME280;17384;51.214;9.202;2022-12-18T01:36:46;100055.00;;;-10.62;82.65
30618;BME280;17384;51.214;9.202;2022-12-18T01:39:14;100060.69;;;-10.74;82.81
30618;BME280;17384;51.214;9.202;2022-12-18T01:41:42;100073.38;;;-10.88;82.77
30618;BME280;17384;51.214;9.202;2022-12-18T01:45:00;100056.50;;;-10.80;82.94
30618;BME280;17384;51.214;9.202;2022-12-18T01:47:48;100059.97;;;-10.79;82.61
30618;BME280;17384;51.214;9.202;2022-12-18T01:50:17;100057.56;;;-10.85;82.82
30618;BME280;17384;51.214;9.202;2022-12-18T01:52:53;100064.88;;;-10.95;83.00
30618;BME280;17384;51.214;9.202;2022-12-18T01:55:22;100061.66;;;-11.03;83.44
30618;BME280;17384;51.214;9.202;2022-12-18T01:57:52;100062.41;;;-11.26;83.76
30618;BME280;17384;51.214;9.202;2022-12-18T02:00:21;100053.78;;;-11.30;84.62
30618;BME280;17384;51.214;9.202;2022-12-18T02:02:47;100061.50;;;-11.25;84.69
30618;BME280;17384;51.214;9.202;2022-12-18T02:05:16;100049.47;;;-11.04;83.49
30618;BME280;17384;51.214;9.202;2022-12-18T02:10:31;100048.69;;;-11.08;82.98
30618;BME280;17384;51.214;9.202;2022-12-18T02:13:20;100055.13;;;-11.18;83.15
30618;BME280;17384;51.214;9.202;2022-12-18T02:18:21;100047.13;;;-11.13;82.38
30618;BME280;17384;51.214;9.202;2022-12-18T02:28:51;100070.31;;;-11.27;82.60
30618;BME280;17384;51.214;9.202;2022-12-18T02:31:23;100058.97;;;-11.28;82.20
30618;BME280;17384;51.214;9.202;2022-12-18T02:33:51;100055.69;;;-11.35;82.50
30618;BME280;17384;51.214;9.202;2022-12-18T02:36:18;100051.38;;;-11.65;83.10
30618;BME280;17384;51.214;9.202;2022-12-18T02:38:45;100037.34;;;-11.90;82.85
30618;BME280;17384;51.214;9.202;2022-12-18T02:41:13;100055.41;;;-12.11;83.21
30618;BME280;17384;51.214;9.202;2022-12-18T02:43:40;100051.06;;;-12.12;83.26
30618;BME280;17384;51.214;9.202;2022-12-18T02:49:01;100038.34;;;-11.94;84.05
30618;BME280;17384;51.214;9.202;2022-12-18T02:54:36;100059.16;;;-11.62;82.31
30618;BME280;17384;51.214;9.202;2022-12-18T03:00:21;100071.69;;;-11.73;82.57
30618;BME280;17384;51.214;9.202;2022-12-18T03:02:56;100059.75;;;-11.80;82.92
30618;BME280;17384;51.214;9.202;2022-12-18T03:08:02;100054.00;;;-12.24;84.01
30618;BME280;17384;51.214;9.202;2022-12-18T03:10:32;100044.03;;;-12.10;83.97
30618;BME280;17384;51.214;9.202;2022-12-18T03:13:04;100049.75;;;-11.97;82.82
30618;BME280;17384;51.214;9.202;2022-12-18T03:15:38;100043.50;;;-11.91;81.76
30618;BME280;17384;51.214;9.202;2022-12-18T03:18:13;100038.38;;;-11.96;81.62
30618;BME280;17384;51.214;9.202;2022-12-18T03:20:40;100052.38;;;-11.97;81.10
30618;BME280;17384;51.214;9.202;2022-12-18T03:23:18;100045.47;;;-12.31;82.42
30618;BME280;17384;51.214;9.202;2022-12-18T03:25:47;100040.72;;;-12.16;82.62
30618;BME280;17384;51.214;9.202;2022-12-18T03:28:19;100031.34;;;-12.23;82.73
30618;BME280;17384;51.214;9.202;2022-12-18T03:30:47;100042.44;;;-12.46;83.02
30618;BME280;17384;51.214;9.202;2022-12-18T03:35:52;100039.59;;;-12.70;85.38
30618;BME280;17384;51.214;9.202;2022-12-18T03:38:17;100026.59;;;-12.73;85.57
30618;BME280;17384;51.214;9.202;2022-12-18T03:41:15;100042.69;;;-12.55;85.14
30618;BME280;17384;51.214;9.202;2022-12-18T03:43:53;100043.25;;;-12.44;85.20
30618;BME280;17384;51.214;9.202;2022-12-18T03:46:46;100041.31;;;-12.36;85.37
30618;BME280;17384;51.214;9.202;2022-12-18T03:49:14;100033.19;;;-12.27;85.49
30618;BME280;17384;51.214;9.202;2022-12-18T03:51:51;100047.69;;;-12.15;84.82
30618;BME280;17384;51.214;9.202;2022-12-18T03:54:20;100046.28;;;-11.98;83.51
30618;BME280;17384;51.214;9.202;2022-12-18T03:56:49;100038.81;;;-12.10;83.62
30618;BME280;17384;51.214;9.202;2022-12-18T03:59:17;100036.84;;;-12.03;83.59
30618;BME280;17384;51.214;9.202;2022-12-18T04:01:47;100048.69;;;-12.21;84.01
30618;BME280;17384;51.214;9.202;2022-12-18T04:04:15;100029.34;;;-12.14;84.37
30618;BME280;17384;51.214;9.202;2022-12-18T04:06:43;100042.84;;;-12.00;84.04
30618;BME280;17384;51.214;9.202;2022-12-18T04:09:10;100044.38;;;-12.22;84.04
30618;BME280;17384;51.214;9.202;2022-12-18T04:11:36;100034.22;;;-12.33;84.29
30618;BME280;17384;51.214;9.202;2022-12-18T04:14:01;100024.03;;;-12.42;84.42
30618;BME280;17384;51.214;9.202;2022-12-18T04:16:27;100042.13;;;-12.34;84.78
30618;BME280;17384;51.214;9.202;2022-12-18T04:18:53;100044.56;;;-12.29;84.68
30618;BME280;17384;51.214;9.202;2022-12-18T04:21:19;100034.03;;;-12.26;85.23
30618;BME280;17384;51.214;9.202;2022-12-18T04:23:45;100041.78;;;-12.23;85.19
30618;BME280;17384;51.214;9.202;2022-12-18T04:26:11;100044.28;;;-12.19;85.25
30618;BME280;17384;51.214;9.202;2022-12-18T04:28:36;100031.22;;;-12.19;85.30
30618;BME280;17384;51.214;9.202;2022-12-18T04:31:02;100026.75;;;-12.15;84.99
30618;BME280;17384;51.214;9.202;2022-12-18T04:33:27;100032.75;;;-12.12;85.26
30618;BME280;17384;51.214;9.202;2022-12-18T04:35:53;100034.81;;;-12.23;85.07
30618;BME280;17384;51.214;9.202;2022-12-18T04:38:18;100024.34;;;-12.23;85.11
30618;BME280;17384;51.214;9.202;2022-12-18T04:40:44;100030.34;;;-12.19;84.73
30618;BME280;17384;51.214;9.202;2022-12-18T04:43:09;100039.75;;;-12.43;84.38
30618;BME280;17384;51.214;9.202;2022-12-18T04:45:35;100026.75;;;-12.46;84.46
30618;BME280;17384;51.214;9.202;2022-12-18T04:48:02;100046.22;;;-12.25;84.33
30618;BME280;17384;51.214;9.202;2022-12-18T04:50:28;100049.81;;;-12.29;84.00
30618;BME280;17384;51.214;9.202;2022-12-18T04:52:54;100059.63;;;-12.38;83.99
30618;BME280;17384;51.214;9.202;2022-12-18T04:55:19;100050.88;;;-12.35;84.11
30618;BME280;17384;51.214;9.202;2022-12-18T04:57:45;100052.06;;;-12.48;84.42
30618;BME280;17384;51.214;9.202;2022-12-18T05:00:11;100050.16;;;-12.42;84.45
30618;BME280;17384;51.214;9.202;2022-12-18T05:02:36;100056.38;;;-12.46;84.33
30618;BME280;17384;51.214;9.202;2022-12-18T05:05:02;100066.09;;;-12.51;83.89
30618;BME280;17384;51.214;9.202;2022-12-18T05:07:28;100051.53;;;-12.59;84.09
30618;BME280;17384;51.214;9.202;2022-12-18T05:09:53;100064.81;;;-12.36;83.81
30618;BME280;17384;51.214;9.202;2022-12-18T05:12:19;100071.53;;;-12.27;82.40
30618;BME280;17384;51.214;9.202;2022-12-18T05:14:44;100057.31;;;-12.48;82.84
30618;BME280;17384;51.214;9.202;2022-12-18T05:17:10;100070.59;;;-12.57;83.32
30618;BME280;17384;51.214;9.202;2022-12-18T05:19:35;100063.81;;;-12.63;83.54
30618;BME280;17384;51.214;9.202;2022-12-18T05:22:04;100074.31;;;-12.64;83.73
30618;BME280;17384;51.214;9.202;2022-12-18T05:24:32;100055.06;;;-12.62;83.70
30618;BME280;17384;51.214;9.202;2022-12-18T05:26:58;100058.69;;;-12.68;83.70
30618;BME280;17384;51.214;9.202;2022-12-18T05:29:23;100072.97;;;-12.81;83.44
30618;BME280;17384;51.214;9.202;2022-12-18T05:31:49;100073.94;;;-13.17;83.92
30618;BME280;17384;51.214;9.202;2022-12-18T05:34:14;100068.03;;;-13.25;84.69
30618;BME280;17384;51.214;9.202;2022-12-18T05:36:40;100063.94;;;-13.37;84.44
30618;BME280;17384;51.214;9.202;2022-12-18T05:39:05;100034.25;;;-12.99;83.96
30618;BME280;17384;51.214;9.202;2022-12-18T05:41:31;100056.41;;;-12.80;82.30
30618;BME280;17384;51.214;9.202;2022-12-18T05:43:58;100044.16;;;-12.78;82.00
30618;BME280;17384;51.214;9.202;2022-12-18T05:46:23;100042.44;;;-12.79;81.76
30618;BME280;17384;51.214;9.202;2022-12-18T05:48:50;100050.19;;;-12.76;81.68
30618;BME280;17384;51.214;9.202;2022-12-18T05:51:18;100047.66;;;-12.79;81.89
30618;BME280;17384;51.214;9.202;2022-12-18T05:53:44;100041.00;;;-12.90;82.17
30618;BME280;17384;51.214;9.202;2022-12-18T05:56:19;100053.03;;;-13.17;82.94
30618;BME280;17384;51.214;9.202;2022-12-18T05:58:45;100053.13;;;-13.20;83.49
30618;BME280;17384;51.214;9.202;2022-12-18T06:01:12;100070.59;;;-13.24;83.19
30618;BME280;17384;51.214;9.202;2022-12-18T06:03:38;100066.41;;;-13.31;83.16
30618;BME280;17384;51.214;9.202;2022-12-18T06:06:12;100057.84;;;-13.38;83.41
30618;BME280;17384;51.214;9.202;2022-12-18T06:08:37;100048.41;;;-13.42;83.23
30618;BME280;17384;51.214;9.202;2022-12-18T06:11:03;100032.09;;;-13.51;83.66
30618;BME280;17384;51.214;9.202;2022-12-18T06:13:28;100042.31;;;-13.41;83.53
30618;BME280;17384;51.214;9.202;2022-12-18T06:15:54;100060.59;;;-13.42;83.61
30618;BME280;17384;51.214;9.202;2022-12-18T06:18:19;100058.00;;;-13.42;83.93
30618;BME280;17384;51.214;9.202;2022-12-18T06:20:45;100055.34;;;-13.41;83.43
30618;BME280;17384;51.214;9.202;2022-12-18T06:23:10;100060.63;;;-13.44;83.24
30618;BME280;17384;51.214;9.202;2022-12-18T06:25:39;100054.59;;;-13.46;83.84
30618;BME280;17384;51.214;9.202;2022-12-18T06:28:04;100061.63;;;-13.49;83.74
30618;BME280;17384;51.214;9.202;2022-12-18T06:30:30;100066.03;;;-13.51;83.75
30618;BME280;17384;51.214;9.202;2022-12-18T06:32:55;100085.16;;;-13.51;83.84
30618;BME280;17384;51.214;9.202;2022-12-18T06:35:22;100068.03;;;-13.64;83.87
30618;BME280;17384;51.214;9.202;2022-12-18T06:37:47;100074.97;;;-13.63;84.10
30618;BME280;17384;51.214;9.202;2022-12-18T06:40:12;100081.84;;;-13.59;83.79
30618;BME280;17384;51.214;9.202;2022-12-18T06:42:38;100077.56;;;-13.63;83.74
30618;BME280;17384;51.214;9.202;2022-12-18T06:45:04;100073.31;;;-13.67;83.30
30618;BME280;17384;51.214;9.202;2022-12-18T06:47:29;100075.31;;;-13.78;83.36
30618;BME280;17384;51.214;9.202;2022-12-18T06:49:55;100082.25;;;-13.77;83.79
30618;BME280;17384;51.214;9.202;2022-12-18T06:52:20;100099.50;;;-13.70;83.71
30618;BME280;17384;51.214;9.202;2022-12-18T06:54:46;100086.41;;;-13.68;83.27
30618;BME280;17384;51.214;9.202;2022-12-18T06:57:11;100089.91;;;-13.70;83.29
30618;BME280;17384;51.214;9.202;2022-12-18T06:59:37;100088.38;;;-13.80;83.14
30618;BME280;17384;51.214;9.202;2022-12-18T07:02:02;100085.81;;;-13.81;82.91
30618;BME280;17384;51.214;9.202;2022-12-18T07:04:29;100091.97;;;-13.85;82.77
30618;BME280;17384;51.214;9.202;2022-12-18T07:06:55;100090.22;;;-13.85;82.68
30618;BME280;17384;51.214;9.202;2022-12-18T07:09:20;100092.84;;;-13.85;82.74
30618;BME280;17384;51.214;9.202;2022-12-18T07:11:46;100081.47;;;-13.81;82.55
30618;BME280;17384;51.214;9.202;2022-12-18T07:14:11;100088.72;;;-13.55;82.45
30618;BME280;17384;51.214;9.202;2022-12-18T07:16:37;100096.34;;;-13.46;81.69
30618;BME280;17384;51.214;9.202;2022-12-18T07:19:02;100102.00;;;-13.67;81.53
30618;BME280;17384;51.214;9.202;2022-12-18T07:21:28;100090.97;;;-13.78;82.30
30618;BME280;17384;51.214;9.202;2022-12-18T07:23:53;100090.38;;;-13.92;81.77
30618;BME280;17384;51.214;9.202;2022-12-18T07:26:20;100098.28;;;-13.95;82.33
30618;BME280;17384;51.214;9.202;2022-12-18T07:28:46;100099.25;;;-13.99;82.59
30618;BME280;17384;51.214;9.202;2022-12-18T07:31:15;100090.63;;;-14.03;82.63
30618;BME280;17384;51.214;9.202;2022-12-18T07:33:41;100094.06;;;-14.01;82.80
30618;BME280;17384;51.214;9.202;2022-12-18T07:36:07;100102.69;;;-13.97;82.55
30618;BME280;17384;51.214;9.202;2022-12-18T07:38:35;100107.03;;;-13.98;82.44
30618;BME280;17384;51.214;9.202;2022-12-18T07:41:03;100110.50;;;-13.97;81.87
30618;BME280;17384;51.214;9.202;2022-12-18T07:43:29;100110.47;;;-13.96;81.96
30618;BME280;17384;51.214;9.202;2022-12-18T07:45:54;100093.03;;;-13.94;81.87
30618;BME280;17384;51.214;9.202;2022-12-18T07:48:20;100099.97;;;-13.94;82.18
30618;BME280;17384;51.214;9.202;2022-12-18T07:50:46;100091.34;;;-13.95;81.82
30618;BME280;17384;51.214;9.202;2022-12-18T07:53:11;100101.13;;;-13.27;83.13
30618;BME280;17384;51.214;9.202;2022-12-18T07:55:37;100100.16;;;-12.88;82.94
30618;BME280;17384;51.214;9.202;2022-12-18T07:58:03;100103.63;;;-10.78;87.29
30618;BME280;17384;51.214;9.202;2022-12-18T08:00:30;100094.28;;;-8.33;89.10
30618;BME280;17384;51.214;9.202;2022-12-18T08:02:57;100098.97;;;-8.01;88.04
30618;BME280;17384;51.214;9.202;2022-12-18T08:05:23;100094.97;;;-9.14;84.95
30618;BME280;17384;51.214;9.202;2022-12-18T08:07:48;100096.91;;;-8.53;82.68
30618;BME280;17384;51.214;9.202;2022-12-18T08:10:14;100115.34;;;-9.42;79.54
30618;BME280;17384;51.214;9.202;2022-12-18T08:12:40;100097.88;;;-9.43;78.54
30618;BME280;17384;51.214;9.202;2022-12-18T08:15:06;100105.72;;;-9.20;78.99
30618;BME280;17384;51.214;9.202;2022-12-18T08:17:32;100113.16;;;-8.66;79.03
30618;BME280;17384;51.214;9.202;2022-12-18T08:19:58;100104.00;;;-9.43;73.10
30618;BME280;17384;51.214;9.202;2022-12-18T08:22:24;100099.06;;;-9.52;73.32
30618;BME280;17384;51.214;9.202;2022-12-18T08:24:50;100097.78;;;-9.64;71.86
30618;BME280;17384;51.214;9.202;2022-12-18T08:27:16;100073.69;;;-9.98;72.04
30618;BME280;17384;51.214;9.202;2022-12-18T08:29:42;100086.16;;;-10.28;72.95
30618;BME280;17384;51.214;9.202;2022-12-18T08:32:07;100079.19;;;-10.79;73.82
30618;BME280;17384;51.214;9.202;2022-12-18T08:34:33;100090.78;;;-10.86;74.75
30618;BME280;17384;51.214;9.202;2022-12-18T08:36:59;100075.13;;;-10.63;75.71
30618;BME280;17384;51.214;9.202;2022-12-18T08:39:25;100070.31;;;-10.75;75.56
30618;BME280;17384;51.214;9.202;2022-12-18T08:41:50;100084.16;;;-10.45;75.82
30618;BME280;17384;51.214;9.202;2022-12-18T08:44:34;100093.56;;;-9.91;76.27
30618;BME280;17384;51.214;9.202;2022-12-18T08:47:03;100086.28;;;-9.38;76.04
30618;BME280;17384;51.214;9.202;2022-12-18T08:49:30;100077.47;;;-8.71;76.36
30618;BME280;17384;51.214;9.202;2022-12-18T08:51:56;100072.63;;;-8.01;75.08
30618;BME280;17384;51.214;9.202;2022-12-18T08:54:25;100078.50;;;-7.75;72.90
30618;BME280;17384;51.214;9.202;2022-12-18T08:56:51;100080.81;;;-7.49;70.83
30618;BME280;17384;51.214;9.202;2022-12-18T08:59:17;100072.00;;;-7.87;69.35
30618;BME280;17384;51.214;9.202;2022-12-18T09:01:43;100073.47;;;-8.60;69.10
30618;BME280;17384;51.214;9.202;2022-12-18T09:04:09;100079.41;;;-8.34;68.38
30618;BME280;17384;51.214;9.202;2022-12-18T09:06:39;100072.31;;;-7.74;69.78
30618;BME280;17384;51.214;9.202;2022-12-18T09:09:06;100075.16;;;-7.23;70.31
30618;BME280;17384;51.214;9.202;2022-12-18T09:11:32;100078.53;;;-7.19;67.46
30618;BME280;17384;51.214;9.202;2022-12-18T09:14:00;100068.63;;;-7.70;66.31
30618;BME280;17384;51.214;9.202;2022-12-18T09:16:27;100061.66;;;-7.71;68.72
30618;BME280;17384;51.214;9.202;2022-12-18T09:18:54;100061.94;;;-7.59;67.46
30618;BME280;17384;51.214;9.202;2022-12-18T09:21:26;100059.06;;;-7.17;68.38
30618;BME280;17384;51.214;9.202;2022-12-18T09:23:54;100060.66;;;-6.95;69.89
30618;BME280;17384;51.214;9.202;2022-12-18T09:26:21;100037.25;;;-6.67;66.01
30618;BME280;17384;51.214;9.202;2022-12-18T09:28:47;100042.91;;;-6.23;68.07
30618;BME280;17384;51.214;9.202;2022-12-18T09:31:14;100039.78;;;-6.13;67.63
30618;BME280;17384;51.214;9.202;2022-12-18T09:33:40;100042.53;;;-6.32;67.90
30618;BME280;17384;51.214;9.202;2022-12-18T09:36:07;100042.59;;;-6.51;69.09
30618;BME280;17384;51.214;9.202;2022-12-18T09:38:34;100058.44;;;-6.51;68.50
30618;BME280;17384;51.214;9.202;2022-12-18T09:41:06;100067.38;;;-6.02;70.09
30618;BME280;17384;51.214;9.202;2022-12-18T09:43:45;100062.34;;;-5.91;69.48
30618;BME280;17384;51.214;9.202;2022-12-18T09:46:19;100084.69;;;-5.48;67.86
30618;BME280;17384;51.214;9.202;2022-12-18T09:48:52;100090.66;;;-4.97;67.57
30618;BME280;17384;51.214;9.202;2022-12-18T09:51:35;100100.41;;;-4.97;66.46
30618;BME280;17384;51.214;9.202;2022-12-18T09:54:10;100086.97;;;-4.79;64.31
30618;BME280;17384;51.214;9.202;2022-12-18T09:56:41;100080.09;;;-4.97;62.10
30618;BME280;17384;51.214;9.202;2022-12-18T09:59:34;100063.09;;;-4.47;64.70
30618;BME280;17384;51.214;9.202;2022-12-18T10:02:23;100062.44;;;-4.36;64.23
30618;BME280;17384;51.214;9.202;2022-12-18T10:05:28;100064.78;;;-4.46;64.23
30618;BME280;17384;51.214;9.202;2022-12-18T10:08:03;100061.63;;;-4.23;66.17
30618;BME280;17384;51.214;9.202;2022-12-18T10:10:51;100053.09;;;-4.28;64.07
30618;BME280;17384;51.214;9.202;2022-12-18T10:16:13;100052.78;;;-3.65;65.13
30618;BME280;17384;51.214;9.202;2022-12-18T10:27:17;100065.53;;;-2.61;60.91
30618;BME280;17384;51.214;9.202;2022-12-18T10:29:45;100071.28;;;-2.54;60.90
30618;BME280;17384;51.214;9.202;2022-12-18T10:32:16;100061.38;;;-2.25;59.99
30618;BME280;17384;51.214;9.202;2022-12-18T10:34:47;100054.50;;;-1.64;60.91
30618;BME280;17384;51.214;9.202;2022-12-18T10:37:21;100050.16;;;-1.29;58.25
30618;BME280;17384;51.214;9.202;2022-12-18T10:40:07;100052.03;;;-0.82;57.27
30618;BME280;17384;51.214;9.202;2022-12-18T10:42:33;100054.84;;;-0.59;57.34
30618;BME280;17384;51.214;9.202;2022-12-18T10:45:16;100036.03;;;0.12;56.29
30618;BME280;17384;51.214;9.202;2022-12-18T10:47:46;100023.63;;;-0.46;55.65
30618;BME280;17384;51.214;9.202;2022-12-18T10:50:24;100026.59;;;-1.46;57.78
30618;BME280;17384;51.214;9.202;2022-12-18T10:52:57;100020.59;;;-2.91;60.78
30618;BME280;17384;51.214;9.202;2022-12-18T10:55:26;100030.16;;;-3.56;64.52
30618;BME280;17384;51.214;9.202;2022-12-18T10:57:53;100013.97;;;-3.66;63.55
30618;BME280;17384;51.214;9.202;2022-12-18T11:00:26;100014.91;;;-3.67;65.20
30618;BME280;17384;51.214;9.202;2022-12-18T11:02:53;100011.94;;;-3.48;65.46
30618;BME280;17384;51.214;9.202;2022-12-18T11:05:28;100007.28;;;-3.45;64.26
30618;BME280;17384;51.214;9.202;2022-12-18T11:07:55;100016.09;;;-3.30;64.07
30618;BME280;17384;51.214;9.202;2022-12-18T11:10:23;100014.72;;;-3.23;64.00
30618;BME280;17384;51.214;9.202;2022-12-18T11:12:50;100011.69;;;-3.86;65.95
30618;BME280;17384;51.214;9.202;2022-12-18T11:15:20;100003.22;;;-4.35;68.01
30618;BME280;17384;51.214;9.202;2022-12-18T11:17:50;99998.19;;;-4.54;68.63
30618;BME280;17384;51.214;9.202;2022-12-18T11:20:35;100001.28;;;-4.62;70.46
30618;BME280;17384;51.214;9.202;2022-12-18T11:23:04;99988.88;;;-4.75;70.53
30618;BME280;17384;51.214;9.202;2022-12-18T11:25:32;99968.56;;;-4.61;71.07
30618;BME280;17384;51.214;9.202;2022-12-18T11:28:04;99963.31;;;-4.32;70.04
30618;BME280;17384;51.214;9.202;2022-12-18T11:30:36;99966.56;;;-4.13;70.24
30618;BME280;17384;51.214;9.202;2022-12-18T11:33:15;99965.78;;;-4.44;71.38
30618;BME280;17384;51.214;9.202;2022-12-18T11:35:57;99974.03;;;-4.64;72.45
30618;BME280;17384;51.214;9.202;2022-12-18T11:38:27;99962.97;;;-4.70;73.92
30618;BME280;17384;51.214;9.202;2022-12-18T11:43:32;99964.78;;;-4.71;73.87
30618;BME280;17384;51.214;9.202;2022-12-18T11:46:34;99963.84;;;-4.70;72.80
30618;BME280;17384;51.214;9.202;2022-12-18T11:49:17;99965.66;;;-4.86;73.41
30618;BME280;17384;51.214;9.202;2022-12-18T11:51:58;99952.91;;;-4.94;75.15
30618;BME280;17384;51.214;9.202;2022-12-18T11:54:26;99940.38;;;-4.76;74.58
30618;BME280;17384;51.214;9.202;2022-12-18T11:56:58;99933.13;;;-4.88;74.79
30618;BME280;17384;51.214;9.202;2022-12-18T12:16:41;99905.50;;;-2.90;69.89
30618;BME280;17384;51.214;9.202;2022-12-18T12:40:27;99874.34;;;-3.00;69.61
30618;BME280;17384;51.214;9.202;2022-12-18T12:46:03;99867.09;;;-3.51;71.04
30618;BME280;17384;51.214;9.202;2022-12-18T12:48:46;99873.31;;;-3.64;71.36
30618;BME280;17384;51.214;9.202;2022-12-18T12:51:13;99886.22;;;-3.72;72.29
30618;BME280;17384;51.214;9.202;2022-12-18T12:53:41;99884.66;;;-4.03;72.89
30618;BME280;17384;51.214;9.202;2022-12-18T12:56:13;99888.88;;;-4.28;73.63
30618;BME280;17384;51.214;9.202;2022-12-18T13:04:42;99896.34;;;-4.20;73.37
30618;BME280;17384;51.214;9.202;2022-12-18T13:07:26;99894.78;;;-3.96;73.42
30618;BME280;17384;51.214;9.202;2022-12-18T13:13:09;99876.47;;;-4.27;74.31
30618;BME280;17384;51.214;9.202;2022-12-18T13:15:41;99892.38;;;-4.13;74.23
30618;BME280;17384;51.214;9.202;2022-12-18T13:20:41;99889.31;;;-4.64;76.22
30618;BME280;17384;51.214;9.202;2022-12-18T13:23:28;99879.97;;;-4.55;76.42
30618;BME280;17384;51.214;9.202;2022-12-18T13:26:00;99882.31;;;-4.65;76.97
30618;BME280;17384;51.214;9.202;2022-12-18T13:31:12;99883.69;;;-5.02;78.11
30618;BME280;17384;51.214;9.202;2022-12-18T13:39:10;99860.06;;;-5.05;78.19
30618;BME280;17384;51.214;9.202;2022-12-18T13:41:35;99873.13;;;-5.32;79.06
30618;BME280;17384;51.214;9.202;2022-12-18T13:46:56;99859.41;;;-5.38;79.21
30618;BME280;17384;51.214;9.202;2022-12-18T13:49:27;99851.19;;;-5.48;80.03
30618;BME280;17384;51.214;9.202;2022-12-18T13:51:56;99850.00;;;-5.58;80.22
30618;BME280;17384;51.214;9.202;2022-12-18T13:54:34;99847.34;;;-5.58;80.13
30618;BME280;17384;51.214;9.202;2022-12-18T13:57:02;99846.25;;;-5.70;80.40
30618;BME280;17384;51.214;9.202;2022-12-18T13:59:39;99844.91;;;-5.77;80.43
30618;BME280;17384;51.214;9.202;2022-12-18T14:02:33;99862.72;;;-5.81;81.40
30618;BME280;17384;51.214;9.202;2022-12-18T14:04:59;99849.78;;;-5.85;81.07
30618;BME280;17384;51.214;9.202;2022-12-18T14:07:28;99874.78;;;-5.91;81.19
30618;BME280;17384;51.214;9.202;2022-12-18T14:09:57;99852.59;;;-5.88;81.59
30618;BME280;17384;51.214;9.202;2022-12-18T14:12:30;99844.28;;;-5.66;80.85
30618;BME280;17384;51.214;9.202;2022-12-18T14:15:26;99861.66;;;-5.62;80.87
30618;BME280;17384;51.214;9.202;2022-12-18T14:18:01;99861.66;;;-5.62;80.63
30618;BME280;17384;51.214;9.202;2022-12-18T14:20:31;99852.75;;;-5.75;80.86
30618;BME280;17384;51.214;9.202;2022-12-18T14:22:57;99858.38;;;-5.82;81.33
30618;BME280;17384;51.214;9.202;2022-12-18T14:25:25;99877.41;;;-5.75;81.18
30618;BME280;17384;51.214;9.202;2022-12-18T14:30:41;99865.78;;;-5.72;81.17
30618;BME280;17384;51.214;9.202;2022-12-18T14:33:17;99865.06;;;-5.90;81.39
30618;BME280;17384;51.214;9.202;2022-12-18T14:36:01;99856.69;;;-5.83;81.59
30618;BME280;17384;51.214;9.202;2022-12-18T14:38:37;99860.63;;;-5.90;81.77
30618;BME280;17384;51.214;9.202;2022-12-18T14:41:16;99879.38;;;-5.94;81.75
30618;BME280;17384;51.214;9.202;2022-12-18T14:43:45;99876.97;;;-5.99;81.98
30618;BME280;17384;51.214;9.202;2022-12-18T14:48:57;99871.22;;;-6.05;82.26